createdAt,value
2022-12-14T00:00:52.491Z,-2.00
2022-12-14T00:05:36.406Z,-2.00
2022-12-14T00:10:20.609Z,-2.00
2022-12-14T00:15:04.163Z,-2.00
2022-12-14T00:19:49.068Z,-2.00
2022-12-14T00:24:32.531Z,-2.00
2022-12-14T00:29:16.037Z,-1.90
2022-12-14T00:34:01.354Z,-1.90
2022-12-14T00:38:47.046Z,-1.90
2022-12-14T00:43:31.112Z,-1.90
2022-12-14T00:48:14.985Z,-2.00
2022-12-14T00:52:58.449Z,-2.00
2022-12-14T00:57:44.566Z,-2.00
2022-12-14T01:02:28.841Z,-2.00
2022-12-14T01:07:12.385Z,-2.00
2022-12-14T01:11:56.075Z,-2.10
2022-12-14T01:16:41.162Z,-2.10
2022-12-14T01:21:25.616Z,-2.10
2022-12-14T01:26:09.156Z,-2.10
2022-12-14T01:30:52.620Z,-2.10
2022-12-14T01:35:37.565Z,-2.10
2022-12-14T01:40:21.249Z,-2.10
2022-12-14T01:45:05.497Z,-2.00
2022-12-14T01:49:52.662Z,-2.10
2022-12-14T01:54:42.141Z,-2.10
2022-12-14T01:59:36.416Z,-2.00
2022-12-14T02:04:20.472Z,-2.00
2022-12-14T02:09:05.722Z,-1.90
2022-12-14T02:13:50.589Z,-1.90
2022-12-14T02:18:34.441Z,-1.90
2022-12-14T02:23:37.794Z,-2.00
2022-12-14T02:28:51.101Z,-2.00
2022-12-14T02:33:49.482Z,-2.00
2022-12-14T02:38:46.610Z,-2.00
2022-12-14T02:43:33.580Z,-2.00
2022-12-14T02:48:21.011Z,-2.00
2022-12-14T02:53:14.641Z,-1.90
2022-12-14T02:58:02.501Z,-2.00
2022-12-14T03:02:47.207Z,-1.90
2022-12-14T03:07:44.365Z,-1.90
2022-12-14T03:12:35.326Z,-1.90
2022-12-14T03:17:22.401Z,-1.90
2022-12-14T03:22:09.499Z,-1.80
2022-12-14T03:26:57.785Z,-1.80
2022-12-14T03:31:50.170Z,-1.80
2022-12-14T03:36:42.141Z,-1.80
2022-12-14T03:41:32.957Z,-1.80
2022-12-14T03:46:22.626Z,-1.90
2022-12-14T03:51:14.851Z,-1.90
2022-12-14T03:56:05.776Z,-1.90
2022-12-14T04:00:58.771Z,-2.00
2022-12-14T04:05:49.114Z,-1.90
2022-12-14T04:10:58.288Z,-1.90
2022-12-14T04:15:57.422Z,-2.00
2022-12-14T04:20:45.497Z,-1.90
2022-12-14T04:25:50.761Z,-1.90
2022-12-14T04:30:40.634Z,-1.80
2022-12-14T04:35:27.975Z,-1.80
2022-12-14T04:40:15.634Z,-1.80
2022-12-14T04:45:03.825Z,-1.90
2022-12-14T04:49:52.846Z,-1.80
2022-12-14T04:54:42.074Z,-1.80
2022-12-14T04:59:26.146Z,-1.80
2022-12-14T05:04:21.792Z,-1.70
2022-12-14T05:09:16.439Z,-1.70
2022-12-14T05:14:01.907Z,-1.80
2022-12-14T05:18:46.398Z,-1.70
2022-12-14T05:23:30.299Z,-1.70
2022-12-14T05:28:15.316Z,-1.70
2022-12-14T05:32:59.631Z,-1.70
2022-12-14T05:37:43.983Z,-1.60
2022-12-14T05:42:27.943Z,-1.60
2022-12-14T05:47:12.804Z,-1.60
2022-12-14T05:51:56.304Z,-1.60
2022-12-14T05:56:39.829Z,-1.60
2022-12-14T06:01:23.550Z,-1.60
2022-12-14T06:06:12.025Z,-1.60
2022-12-14T06:11:03.414Z,-1.60
2022-12-14T06:15:47.130Z,-1.50
2022-12-14T06:20:30.640Z,-1.50
2022-12-14T06:25:16.900Z,-1.50
2022-12-14T06:30:00.516Z,-1.50
2022-12-14T06:34:45.869Z,-1.50
2022-12-14T06:39:29.438Z,-1.40
2022-12-14T06:44:15.999Z,-1.50
2022-12-14T06:49:00.094Z,-1.50
2022-12-14T06:53:43.573Z,-1.40
2022-12-14T06:58:32.390Z,-1.40
2022-12-14T07:03:17.488Z,-1.40
2022-12-14T07:08:01.497Z,-1.30
2022-12-14T07:12:45.008Z,-1.30
2022-12-14T07:17:29.102Z,-1.40
2022-12-14T07:22:14.013Z,-1.30
2022-12-14T07:26:57.706Z,-1.30
2022-12-14T07:31:41.284Z,-1.30
2022-12-14T07:36:26.189Z,-1.20
2022-12-14T07:41:15.527Z,-1.00
2022-12-14T07:46:04.094Z,-1.00
2022-12-14T07:50:47.558Z,-1.00
2022-12-14T07:55:31.373Z,-0.90
2022-12-14T08:00:17.827Z,-0.80
2022-12-14T08:05:01.901Z,-0.80
2022-12-14T08:09:45.425Z,-0.70
2022-12-14T08:14:29.076Z,-0.70
2022-12-14T08:19:15.118Z,-0.70
2022-12-14T08:23:59.591Z,-0.60
2022-12-14T08:28:43.302Z,-0.70
2022-12-14T08:33:27.223Z,-0.60
2022-12-14T08:38:12.403Z,-0.50
2022-12-14T08:42:56.125Z,-0.30
2022-12-14T08:47:39.667Z,0.00
2022-12-14T08:52:23.375Z,1.00
2022-12-14T08:57:08.304Z,2.30
2022-12-14T09:01:52.556Z,2.10
2022-12-14T09:06:38.336Z,1.50
2022-12-14T09:11:23.190Z,1.10
2022-12-14T09:16:10.252Z,0.70
2022-12-14T09:20:55.983Z,0.60
2022-12-14T09:25:39.729Z,0.50
2022-12-14T09:30:26.566Z,0.50
2022-12-14T09:35:11.809Z,0.60
2022-12-14T09:39:55.286Z,0.60
2022-12-14T09:44:52.168Z,0.60
2022-12-14T09:49:41.241Z,0.70
2022-12-14T09:54:29.524Z,0.80
2022-12-14T09:59:17.690Z,0.90
2022-12-14T10:04:11.231Z,1.10
2022-12-14T10:09:04.866Z,1.50
2022-12-14T10:14:00.035Z,1.70
2022-12-14T10:19:01.167Z,1.80
2022-12-14T10:23:54.300Z,1.70
2022-12-14T10:28:45.971Z,1.70
2022-12-14T10:33:33.471Z,2.80
2022-12-14T10:38:25.164Z,3.70
2022-12-14T10:43:36.549Z,3.80
2022-12-14T10:48:45.596Z,3.80
2022-12-14T10:53:40.766Z,3.20
2022-12-14T10:58:24.925Z,3.20
2022-12-14T11:03:16.532Z,2.60
2022-12-14T11:08:00.427Z,2.00
2022-12-14T11:13:11.890Z,2.10
2022-12-14T11:18:04.735Z,2.70
2022-12-14T11:22:50.422Z,2.50
2022-12-14T11:27:33.878Z,2.00
2022-12-14T11:32:24.420Z,3.60
2022-12-14T11:37:20.921Z,5.00
2022-12-14T11:42:05.327Z,6.00
2022-12-14T11:46:54.375Z,6.30
2022-12-14T11:51:39.432Z,6.30
2022-12-14T11:56:22.992Z,5.90
2022-12-14T12:01:12.756Z,5.40
2022-12-14T12:06:01.075Z,5.70
2022-12-14T12:10:49.706Z,6.10
2022-12-14T12:15:39.860Z,6.10
2022-12-14T12:20:35.861Z,5.70
2022-12-14T12:25:28.517Z,4.90
2022-12-14T12:30:28.701Z,4.20
2022-12-14T12:35:20.142Z,3.50
2022-12-14T12:40:12.104Z,3.30
2022-12-14T12:45:02.372Z,2.60
2022-12-14T12:49:47.347Z,2.60
2022-12-14T12:54:35.563Z,2.50
2022-12-14T12:59:23.303Z,2.30
2022-12-14T13:04:14.423Z,2.30
2022-12-14T13:09:02.759Z,2.30
2022-12-14T13:13:53.077Z,4.20
2022-12-14T13:18:59.692Z,3.70
2022-12-14T13:23:45.761Z,3.40
2022-12-14T13:28:51.003Z,3.00
2022-12-14T13:34:02.406Z,3.20
2022-12-14T13:39:09.570Z,4.90
2022-12-14T13:44:24.843Z,5.90
2022-12-14T13:49:21.745Z,6.10
2022-12-14T13:54:08.055Z,5.00
2022-12-14T13:58:54.503Z,3.80
2022-12-14T14:03:54.164Z,3.10
2022-12-14T14:08:42.401Z,2.60
2022-12-14T14:14:09.237Z,2.30
2022-12-14T14:18:59.919Z,2.10
2022-12-14T14:23:58.125Z,1.90
2022-12-14T14:28:43.182Z,1.80
2022-12-14T14:33:48.086Z,1.70
2022-12-14T14:38:34.962Z,1.60
2022-12-14T14:43:28.319Z,1.60
2022-12-14T14:48:22.907Z,1.60
2022-12-14T14:53:30.059Z,1.60
2022-12-14T14:58:24.874Z,1.70
2022-12-14T15:03:14.486Z,1.60
2022-12-14T15:07:59.169Z,1.60
2022-12-14T15:12:48.299Z,1.50
2022-12-14T15:17:33.296Z,1.50
2022-12-14T15:22:20.615Z,1.50
2022-12-14T15:27:11.872Z,1.40
2022-12-14T15:32:00.669Z,1.40
2022-12-14T15:36:46.263Z,1.40
2022-12-14T15:41:32.555Z,1.40
2022-12-14T15:46:18.894Z,1.30
2022-12-14T15:51:05.172Z,1.30
2022-12-14T15:55:59.865Z,1.30
2022-12-14T16:00:49.020Z,1.30
2022-12-14T16:05:35.821Z,1.30
2022-12-14T16:10:24.909Z,1.30
2022-12-14T16:15:19.825Z,1.30
2022-12-14T16:20:16.792Z,1.30
2022-12-14T16:25:18.251Z,1.30
2022-12-14T16:30:19.217Z,1.30
2022-12-14T16:35:03.494Z,1.20
2022-12-14T16:39:50.234Z,1.20
2022-12-14T16:44:39.537Z,1.30
2022-12-14T16:49:32.713Z,1.30
2022-12-14T16:54:29.675Z,1.30
2022-12-14T16:59:23.652Z,1.30
2022-12-14T17:04:09.778Z,1.40
2022-12-14T17:08:55.945Z,1.40
2022-12-14T17:13:40.825Z,1.50
2022-12-14T17:18:27.523Z,1.50
2022-12-14T17:23:18.019Z,1.50
2022-12-14T17:28:03.814Z,1.60
2022-12-14T17:32:48.545Z,1.60
2022-12-14T17:37:36.743Z,1.50
2022-12-14T17:42:28.900Z,1.60
2022-12-14T17:47:18.073Z,1.50
2022-12-14T17:52:04.574Z,1.50
2022-12-14T17:56:49.323Z,1.50
2022-12-14T18:01:34.137Z,1.40
2022-12-14T18:06:21.612Z,1.50
2022-12-14T18:11:13.595Z,1.50
2022-12-14T18:15:58.546Z,1.50
2022-12-14T18:20:46.605Z,1.50
2022-12-14T18:25:39.730Z,1.50
2022-12-14T18:30:25.653Z,1.50
2022-12-14T18:35:18.254Z,1.40
2022-12-14T18:40:04.275Z,1.50
2022-12-14T18:45:04.344Z,1.40
2022-12-14T18:49:52.458Z,1.40
2022-12-14T18:54:37.608Z,1.40
2022-12-14T18:59:21.924Z,1.40
2022-12-14T19:04:10.247Z,1.40
2022-12-14T19:08:57.343Z,1.40
2022-12-14T19:13:46.157Z,1.40
2022-12-14T19:18:36.101Z,1.40
2022-12-14T19:23:30.119Z,1.40
2022-12-14T19:28:31.514Z,1.40
2022-12-14T19:33:24.798Z,1.40
2022-12-14T19:38:15.876Z,1.50
2022-12-14T19:43:04.096Z,1.50
2022-12-14T19:47:50.015Z,1.50
2022-12-14T19:52:35.978Z,1.50
2022-12-14T19:57:23.851Z,1.50
2022-12-14T20:02:14.308Z,1.50
2022-12-14T20:06:59.723Z,1.50
2022-12-14T20:11:45.061Z,1.50
2022-12-14T20:16:30.784Z,1.50
2022-12-14T20:21:22.662Z,1.50
2022-12-14T20:26:12.389Z,1.40
2022-12-14T20:30:58.365Z,1.40
2022-12-14T20:35:43.833Z,1.50
2022-12-14T20:40:36.362Z,1.50
2022-12-14T20:45:25.603Z,1.50
2022-12-14T20:50:12.910Z,1.50
2022-12-14T20:55:00.653Z,1.40
2022-12-14T20:59:46.183Z,1.50
2022-12-14T21:04:31.468Z,1.50
2022-12-14T21:09:15.707Z,1.40
2022-12-14T21:14:00.194Z,1.40
2022-12-14T21:18:51.808Z,1.40
2022-12-14T21:23:36.180Z,1.40
2022-12-14T21:28:20.686Z,1.50
2022-12-14T21:33:04.868Z,1.50
2022-12-14T21:37:50.320Z,1.50
2022-12-14T21:42:34.056Z,1.40
2022-12-14T21:47:19.612Z,1.50
2022-12-14T21:52:07.305Z,1.60
2022-12-14T21:57:10.594Z,1.60
2022-12-14T22:01:54.805Z,1.60
2022-12-14T22:06:38.390Z,1.60
2022-12-14T22:11:22.480Z,1.60
2022-12-14T22:16:09.430Z,1.60
2022-12-14T22:20:52.973Z,1.80
2022-12-14T22:25:36.410Z,1.70
2022-12-14T22:30:19.968Z,1.70
2022-12-14T22:35:05.878Z,1.60
2022-12-14T22:39:49.428Z,1.50
2022-12-14T22:44:33.972Z,1.50
2022-12-14T22:49:18.877Z,1.60
2022-12-14T22:54:03.914Z,1.60
2022-12-14T22:58:50.517Z,1.60
2022-12-14T23:03:34.615Z,1.60
2022-12-14T23:08:18.540Z,1.60
2022-12-14T23:13:21.168Z,1.70
2022-12-14T23:18:24.654Z,1.70
2022-12-14T23:23:26.255Z,1.80
2022-12-14T23:28:28.808Z,1.80
2022-12-14T23:33:30.037Z,1.90
2022-12-14T23:38:31.545Z,1.90
2022-12-14T23:43:36.016Z,1.90
2022-12-14T23:48:36.838Z,1.90
2022-12-14T23:53:37.926Z,1.90
2022-12-14T23:58:40.825Z,1.90
